SBFL METAR and TAF | Updated Today

SBFL METAR

Hercílio Luz International Airport

Observation time: 48 min. ago

SBFL 251800Z 34005KT CAVOK 25/17 Q1019

Need help? Read our tutorial on how to read METARs or read the parsed version below.

Hercílio Luz International Airport (SBFL) METAR

  • Weather conditions on Wed, 25 May 2022 18:00:00 +0000 (48 min. ago):
  • Present conditions: Dry
  • Clouds: Clear skies
  • Visibility: Greater than 10 km
  • Wind: 340 degrees at 5 knots
  • Temperature: 25 celsius
  • Dew point: 17 celsius
  • Pressure: 1019 millibars
  • Remarks: None


Useful to know...

SBFL TAF

Hercílio Luz International Airport

TAF SBFL 251500Z 2518/2618 35007KT CAVOK TN17/2606Z TX25/2616Z BECMG 2616/2618 18008KT RMK PDW
Observation time: 3:48 hr. ago
Need help? Read our tutorial on how to read TAFs or read the parsed version below.

Parsed version of TAF for Hercílio Luz International Airport (SBFL)

  • From 25 May at 18:00 UTC, to day 26 of the month at 18:00 UTC
  • Visibility: Greater than 10 km
  • Wind: 350 degrees at 7
  • Expected to arise soon, from 26 May at 16:00 UTC, to day 26 of the month at 18:00 UTC
  • Wind: 180 degrees at 8

Airports near SBFL

No airports found within 100nm radius.